Time;durP1;ratioP1;P1;durP2;ratioP2;P2;SDS_P1;SDS_P2;PMS_P1;PMS_P2;Temp;Humidity;BMP_temperature;BMP_pressure;BME280_temperature;BME280_humidity;BME280_pressure;Samples;Min_cycle;Max_cycle;Signal;HPM_P1;HPM_P2
2022/05/30 00:02:23;;;;;;;3.65;1.73;;;;;;;21.52;41.59;101348.34;4955032;28;20113;-80
2022/05/30 00:04:49;;;;;;;3.03;1.60;;;;;;;21.53;41.65;101349.97;4966367;28;20050;-80
2022/05/30 00:07:17;;;;;;;3.47;1.65;;;;;;;21.56;41.41;101351.47;4967761;28;20041;-80
2022/05/30 00:09:43;;;;;;;3.38;1.60;;;;;;;21.60;41.11;101347.47;4935868;28;20076;-81
2022/05/30 00:12:09;;;;;;;2.95;1.40;;;;;;;21.58;41.48;101347.66;4967337;28;20085;-81
2022/05/30 00:14:34;;;;;;;2.05;1.60;;;;;;;21.37;41.53;101311.22;4955702;28;20077;-80
2022/05/30 00:17:01;;;;;;;4.25;2.00;;;;;;;21.53;41.55;101347.34;4968500;28;20046;-80
2022/05/30 00:19:26;;;;;;;3.05;1.25;;;;;;;21.54;41.81;101350.81;4966970;28;20042;-79
2022/05/30 00:21:55;;;;;;;3.30;1.60;;;;;;;21.55;41.46;101341.88;4970802;28;20097;-80
2022/05/30 00:24:20;;;;;;;2.40;1.70;;;;;;;21.53;41.35;101336.75;4970007;28;20034;-80
2022/05/30 00:26:46;;;;;;;2.17;1.33;;;;;;;21.52;41.25;101335.09;4962851;28;20043;-80
2022/05/30 00:29:11;;;;;;;1.98;1.38;;;;;;;21.47;41.61;101326.03;4970005;28;20039;-80
2022/05/30 00:31:37;;;;;;;2.65;1.55;;;;;;;21.57;41.35;101335.41;4932382;28;20498;-80
2022/05/30 00:34:03;;;;;;;2.78;1.63;;;;;;;21.56;41.54;101328.47;4948212;28;20054;-80
2022/05/30 00:36:29;;;;;;;1.88;1.30;;;;;;;21.38;41.63;101307.56;4943252;28;20043;-80
2022/05/30 00:38:55;;;;;;;2.35;1.67;;;;;;;21.51;41.71;101317.53;4930086;28;20039;-80
2022/05/30 00:41:22;;;;;;;4.03;2.22;;;;;;;21.50;41.41;101318.56;4941475;28;20043;-80
2022/05/30 00:43:48;;;;;;;2.55;1.40;;;;;;;21.50;41.52;101320.38;4945012;28;20142;-81
2022/05/30 00:46:16;;;;;;;2.65;1.42;;;;;;;21.50;41.38;101325.69;4946853;28;20735;-82
2022/05/30 00:48:46;;;;;;;3.15;1.83;;;;;;;21.53;41.59;101331.44;4943598;28;20110;-80
2022/05/30 00:51:17;;;;;;;2.75;1.45;;;;;;;21.45;41.80;101334.16;4946470;28;20052;-81
2022/05/30 00:53:45;;;;;;;4.22;1.70;;;;;;;21.43;41.45;101322.94;4945832;28;20433;-81
2022/05/30 00:56:13;;;;;;;2.58;1.42;;;;;;;21.34;41.52;101316.84;4926934;28;20421;-81
2022/05/30 00:58:47;;;;;;;2.53;1.55;;;;;;;21.46;41.49;101335.00;4943634;28;20041;-80
2022/05/30 01:01:13;;;;;;;1.60;1.25;;;;;;;21.22;41.44;101298.91;4954810;28;20042;-81
2022/05/30 01:06:34;;;;;;;2.17;1.75;;;;;;;21.41;41.42;101323.09;4938771;28;20809;-81
2022/05/30 01:09:05;;;;;;;2.47;1.63;;;;;;;21.46;41.68;101345.59;4928470;28;20054;-81
2022/05/30 01:12:02;;;;;;;2.63;1.60;;;;;;;21.42;41.85;101347.78;4930104;28;20034;-80
2022/05/30 01:14:35;;;;;;;3.17;1.45;;;;;;;21.36;41.70;101328.13;4956147;28;20119;-80
2022/05/30 01:17:05;;;;;;;1.70;1.15;;;;;;;21.46;41.57;101351.72;4926889;28;20070;-79
2022/05/30 01:19:46;;;;;;;3.55;1.67;;;;;;;21.48;41.41;101343.59;4948818;28;20073;-79
2022/05/30 01:22:20;;;;;;;1.83;1.40;;;;;;;21.48;41.66;101340.94;4924186;28;20424;-79
2022/05/30 01:25:04;;;;;;;3.03;1.33;;;;;;;21.29;41.67;101318.41;4931647;28;20531;-79
2022/05/30 01:28:32;;;;;;;2.38;1.35;;;;;;;21.43;41.63;101333.53;4954971;28;20605;-80
2022/05/30 01:30:58;;;;;;;2.00;1.27;;;;;;;21.37;41.87;101335.06;4927210;28;20054;-80
2022/05/30 01:33:24;;;;;;;4.97;1.70;;;;;;;21.33;41.92;101327.63;4975819;28;20082;-79
2022/05/30 01:35:50;;;;;;;2.85;1.35;;;;;;;21.44;41.66;101337.81;4947231;28;20213;-79
2022/05/30 01:38:16;;;;;;;1.95;1.33;;;;;;;21.41;41.51;101333.72;4947071;28;20042;-80
2022/05/30 01:40:43;;;;;;;1.02;0.93;;;;;;;21.32;41.66;101331.28;4949250;28;20046;-80
2022/05/30 01:43:09;;;;;;;2.15;1.40;;;;;;;21.40;41.59;101340.00;4944135;28;20536;-80
2022/05/30 01:45:37;;;;;;;3.13;1.80;;;;;;;21.37;41.68;101343.03;4949436;28;20130;-80
2022/05/30 01:48:03;;;;;;;2.08;1.42;;;;;;;21.38;41.85;101336.72;4946735;28;20804;-80
2022/05/30 01:50:29;;;;;;;2.40;1.48;;;;;;;21.42;41.58;101322.09;4950180;28;20711;-80
2022/05/30 01:52:58;;;;;;;2.03;1.20;;;;;;;21.26;41.48;101302.88;4949736;28;20481;-80
2022/05/30 01:55:53;;;;;;;1.90;1.20;;;;;;;21.40;41.68;101323.28;4947653;28;20035;-80
2022/05/30 01:58:19;;;;;;;2.42;1.30;;;;;;;21.28;41.61;101308.81;4931365;28;20045;-80
2022/05/30 02:01:28;;;;;;;1.65;1.27;;;;;;;21.33;41.58;101307.25;4922071;28;20050;-80
2022/05/30 02:03:57;;;;;;;1.58;1.40;;;;;;;21.31;41.60;101309.28;4952295;28;21391;-80
2022/05/30 02:06:25;;;;;;;1.73;1.33;;;;;;;21.38;41.83;101315.53;4961314;28;20038;-80
2022/05/30 02:08:51;;;;;;;2.53;1.13;;;;;;;21.35;41.70;101321.16;4961700;28;20082;-80
2022/05/30 02:11:18;;;;;;;1.65;0.98;;;;;;;21.38;41.58;101320.00;4946949;28;20039;-81
2022/05/30 02:13:45;;;;;;;2.28;1.50;;;;;;;21.34;41.79;101303.59;4963662;28;20045;-79
2022/05/30 02:19:05;;;;;;;1.85;1.05;;;;;;;21.39;41.83;101317.16;4947879;28;20034;-79
2022/05/30 02:21:34;;;;;;;1.45;1.20;;;;;;;21.21;41.65;101290.13;4944869;28;20042;-80
2022/05/30 02:24:02;;;;;;;2.28;1.30;;;;;;;21.28;41.80;101312.28;4962672;28;20103;-80
2022/05/30 02:26:27;;;;;;;2.88;1.52;;;;;;;21.34;41.52;101308.91;4960755;28;20038;-79
2022/05/30 02:28:54;;;;;;;1.45;1.08;;;;;;;21.36;41.65;101306.06;4945853;28;20039;-79
2022/05/30 02:31:20;;;;;;;2.53;1.48;;;;;;;21.21;41.75;101281.38;4929529;28;20038;-80
2022/05/30 02:36:39;;;;;;;2.65;1.38;;;;;;;21.37;41.50;101303.28;4924493;28;20253;-81
2022/05/30 02:39:13;;;;;;;2.50;1.30;;;;;;;21.36;41.80;101306.94;4928946;28;20122;-81
2022/05/30 02:42:02;;;;;;;2.45;1.55;;;;;;;21.32;41.70;101305.63;4922188;28;20474;-81
2022/05/30 02:44:32;;;;;;;2.25;1.50;;;;;;;21.22;41.65;101285.66;4952894;28;20138;-81
2022/05/30 02:46:58;;;;;;;2.50;1.40;;;;;;;20.94;41.74;101240.34;4928025;28;20683;-81
2022/05/30 02:49:26;;;;;;;2.95;1.40;;;;;;;21.31;41.66;101311.09;4951527;28;20027;-81
2022/05/30 02:51:52;;;;;;;2.53;1.30;;;;;;;21.33;41.74;101301.97;4924106;28;20035;-81
2022/05/30 02:54:19;;;;;;;2.15;1.42;;;;;;;21.26;41.44;101297.56;4956065;28;20030;-81
2022/05/30 02:56:53;;;;;;;1.38;1.08;;;;;;;21.30;41.61;101309.44;4941391;28;20061;-85
2022/05/30 02:59:20;;;;;;;1.58;1.10;;;;;;;21.32;41.64;101308.25;4927581;28;20122;-82
2022/05/30 03:01:53;;;;;;;2.33;1.52;;;;;;;21.32;41.70;101310.91;4924990;28;20051;-81
2022/05/30 03:04:20;;;;;;;1.45;1.20;;;;;;;21.24;41.83;101300.41;4940872;28;20561;-82
2022/05/30 03:06:46;;;;;;;1.23;0.85;;;;;;;21.24;41.75;101300.41;4912276;28;20051;-82
2022/05/30 03:09:14;;;;;;;1.95;1.13;;;;;;;21.20;41.63;101285.84;4945979;28;20748;-82
2022/05/30 03:11:55;;;;;;;1.45;1.15;;;;;;;21.31;41.74;101305.78;4939475;28;20031;-81
2022/05/30 03:14:22;;;;;;;1.55;1.17;;;;;;;21.29;41.84;101305.16;4930813;28;20394;-81
2022/05/30 03:16:48;;;;;;;2.55;1.40;;;;;;;21.29;41.61;101300.69;4910178;28;20043;-81
2022/05/30 03:19:15;;;;;;;2.88;1.40;;;;;;;21.15;41.83;101276.75;4944262;28;20814;-81
2022/05/30 03:21:40;;;;;;;1.30;1.20;;;;;;;21.28;41.61;101301.69;4925004;28;20568;-81
2022/05/30 03:24:08;;;;;;;2.80;1.33;;;;;;;21.24;42.14;101303.03;4928857;28;20039;-81
2022/05/30 03:26:37;;;;;;;2.85;1.30;;;;;;;21.16;41.89;101291.63;4943493;28;20126;-81
2022/05/30 03:29:04;;;;;;;2.22;1.20;;;;;;;20.41;42.09;101157.34;4926713;28;20026;-81
2022/05/30 03:31:30;;;;;;;1.65;1.30;;;;;;;21.09;41.65;101275.66;4925995;28;20050;-80
2022/05/30 03:33:56;;;;;;;2.08;1.27;;;;;;;21.22;41.81;101299.72;4951209;28;20046;-81
2022/05/30 03:36:25;;;;;;;1.83;1.25;;;;;;;21.13;41.94;101285.69;4932617;28;20050;-81
2022/05/30 03:39:17;;;;;;;2.70;1.40;;;;;;;21.08;41.75;101279.28;4955697;28;20121;-81
2022/05/30 03:42:01;;;;;;;3.05;1.27;;;;;;;21.25;41.75;101314.47;4961867;28;20763;-80
2022/05/30 03:44:51;;;;;;;1.40;1.30;;;;;;;21.28;41.91;101314.94;4948161;28;20473;-81
2022/05/30 03:47:18;;;;;;;1.65;1.40;;;;;;;21.25;41.83;101320.59;4959243;28;20042;-81
2022/05/30 03:49:46;;;;;;;1.15;1.00;;;;;;;21.15;41.86;101306.72;4949958;28;20043;-80
2022/05/30 03:52:14;;;;;;;2.25;1.20;;;;;;;21.06;41.74;101292.72;4928657;28;20047;-80
2022/05/30 03:54:40;;;;;;;1.15;1.08;;;;;;;21.26;41.83;101318.75;4943394;28;20501;-82
2022/05/30 03:57:06;;;;;;;3.40;1.42;;;;;;;21.21;41.74;101323.75;4942029;28;20050;-79
2022/05/30 03:59:32;;;;;;;1.67;1.17;;;;;;;21.26;41.61;101326.69;4947735;28;20034;-83
2022/05/30 04:01:57;;;;;;;1.60;1.20;;;;;;;21.13;41.83;101314.00;4957909;28;20510;-80
2022/05/30 04:04:23;;;;;;;1.17;1.08;;;;;;;21.21;41.56;101321.91;4947474;28;20030;-80
2022/05/30 04:06:49;;;;;;;2.85;1.27;;;;;;;21.09;41.66;101296.84;4931285;28;20042;-82
2022/05/30 04:09:17;;;;;;;1.42;1.15;;;;;;;21.13;41.84;101306.88;4932445;28;20482;-82
2022/05/30 04:12:01;;;;;;;2.28;1.38;;;;;;;21.21;41.81;101313.97;4961873;28;20066;-81
2022/05/30 04:14:45;;;;;;;1.80;1.15;;;;;;;21.19;41.73;101315.16;4962404;28;20073;-81
2022/05/30 04:17:16;;;;;;;1.52;1.10;;;;;;;21.25;41.78;101322.41;4946569;28;20043;-82
2022/05/30 04:19:43;;;;;;;1.65;1.05;;;;;;;21.15;41.53;101297.94;4966731;28;20108;-80
2022/05/30 04:22:11;;;;;;;1.55;1.20;;;;;;;21.26;41.67;101316.94;4943252;28;20097;-81
2022/05/30 04:25:08;;;;;;;1.70;1.30;;;;;;;21.12;41.85;101307.06;4945576;28;20133;-81
2022/05/30 04:27:34;;;;;;;1.25;1.08;;;;;;;21.23;41.64;101316.44;4950579;28;20026;-80
2022/05/30 04:30:00;;;;;;;1.50;1.00;;;;;;;21.19;41.75;101305.38;4965123;28;20229;-81
2022/05/30 04:32:27;;;;;;;1.73;1.08;;;;;;;21.27;41.61;101315.09;4964148;28;20064;-80
2022/05/30 04:34:54;;;;;;;1.40;1.02;;;;;;;21.21;41.69;101311.31;4952268;28;20042;-81
2022/05/30 04:37:22;;;;;;;2.53;1.10;;;;;;;21.15;41.70;101304.06;4975034;28;20687;-81
2022/05/30 04:39:51;;;;;;;1.05;1.05;;;;;;;21.15;41.48;101297.94;4962377;28;20034;-81
2022/05/30 04:42:57;;;;;;;1.35;1.00;;;;;;;21.21;41.73;101321.09;4963215;28;20050;-81
2022/05/30 04:45:41;;;;;;;0.85;0.85;;;;;;;21.05;41.71;101285.78;4961730;28;20085;-81
2022/05/30 04:48:25;;;;;;;1.65;1.10;;;;;;;21.25;41.61;101317.94;4947108;28;20058;-80
2022/05/30 04:50:50;;;;;;;1.75;1.02;;;;;;;21.25;41.56;101317.13;4957438;28;20066;-80
2022/05/30 04:53:16;;;;;;;1.67;1.10;;;;;;;21.25;41.58;101325.06;4950721;28;20039;-81
2022/05/30 04:56:01;;;;;;;1.05;0.90;;;;;;;21.25;41.82;101317.13;4957871;28;20180;-81
2022/05/30 04:58:36;;;;;;;1.33;1.02;;;;;;;21.24;41.61;101315.44;4937739;28;20039;-80
2022/05/30 05:01:17;;;;;;;1.60;1.23;;;;;;;21.14;41.63;101297.13;4980693;28;20153;-81
2022/05/30 05:03:44;;;;;;;1.17;1.00;;;;;;;21.20;41.83;101312.31;4946958;28;20038;-81
2022/05/30 05:06:09;;;;;;;0.98;0.95;;;;;;;21.22;41.77;101318.25;4932943;28;20042;-80
2022/05/30 05:08:44;;;;;;;1.60;1.00;;;;;;;21.26;41.61;101324.88;4947015;28;20078;-80
2022/05/30 05:11:30;;;;;;;1.73;1.33;;;;;;;21.19;41.79;101321.28;4965688;28;20536;-81
2022/05/30 05:14:16;;;;;;;1.95;1.02;;;;;;;21.24;41.66;101323.38;4967116;28;20142;-81
2022/05/30 05:17:00;;;;;;;1.55;1.08;;;;;;;21.18;41.76;101318.78;4963676;28;20056;-80
2022/05/30 05:19:27;;;;;;;1.15;0.95;;;;;;;21.24;41.79;101326.88;4946606;28;20031;-81
2022/05/30 05:21:52;;;;;;;1.77;1.23;;;;;;;21.27;41.72;101329.19;4951260;28;20170;-80
2022/05/30 05:24:19;;;;;;;2.47;1.13;;;;;;;21.23;41.63;101316.44;4935421;28;20066;-80
2022/05/30 05:27:05;;;;;;;1.05;1.05;;;;;;;21.32;41.44;101332.09;4929655;28;20158;-80
2022/05/30 05:29:31;;;;;;;1.30;1.20;;;;;;;21.22;41.63;101328.84;4948784;28;20127;-80
2022/05/30 05:31:57;;;;;;;2.00;1.00;;;;;;;21.26;41.56;101338.13;4951113;28;20055;-81
2022/05/30 05:34:23;;;;;;;1.08;1.00;;;;;;;21.25;41.40;101331.19;4969043;28;20090;-81
2022/05/30 05:36:49;;;;;;;0.80;0.80;;;;;;;21.11;41.77;101313.38;4950767;28;20038;-81
2022/05/30 05:39:16;;;;;;;0.80;0.75;;;;;;;21.24;41.66;101336.63;4948265;28;20031;-81
2022/05/30 05:41:49;;;;;;;1.73;1.20;;;;;;;21.17;41.72;101325.88;4951036;28;20445;-80
2022/05/30 05:44:16;;;;;;;1.65;0.82;;;;;;;21.25;41.57;101335.66;4968090;28;20035;-81
2022/05/30 05:46:43;;;;;;;0.80;0.80;;;;;;;21.24;41.78;101331.31;4964316;28;20053;-80
2022/05/30 05:49:09;;;;;;;3.60;1.30;;;;;;;21.08;41.54;101306.59;4951735;28;20031;-81
2022/05/30 05:51:37;;;;;;;1.27;1.00;;;;;;;21.09;42.01;101320.66;4947743;28;20077;-80
2022/05/30 05:54:07;;;;;;;1.65;0.93;;;;;;;21.18;41.53;101326.72;4950059;28;20033;-80
2022/05/30 05:56:33;;;;;;;1.17;0.90;;;;;;;21.29;41.71;101331.66;4950367;28;20039;-80
2022/05/30 05:59:02;;;;;;;1.17;1.00;;;;;;;21.17;41.73;101310.00;4955619;28;20030;-79
2022/05/30 06:01:33;;;;;;;1.70;1.48;;;;;;;21.31;41.65;101334.94;4953998;28;20513;-80
2022/05/30 06:04:03;;;;;;;4.35;1.35;;;;;;;21.34;41.78;101335.41;4959739;28;20113;-80
2022/05/30 06:06:48;;;;;;;0.70;0.70;;;;;;;21.32;41.41;101337.41;4961138;28;20782;-79
2022/05/30 06:09:22;;;;;;;0.75;0.75;;;;;;;21.19;41.69;101315.97;4969916;28;20047;-80
2022/05/30 06:11:53;;;;;;;;;;;;;;;21.34;41.44;101337.22;4950012;28;20049;-79
2022/05/30 06:14:19;;;;;;;1.30;0.90;;;;;;;21.33;41.74;101335.56;4951489;28;19944;-80
2022/05/30 06:16:47;;;;;;;1.00;1.00;;;;;;;21.33;41.69;101344.34;4949473;28;20031;-80
2022/05/30 06:19:17;;;;;;;1.38;0.85;;;;;;;21.34;41.37;101332.75;4963814;28;20038;-80
2022/05/30 06:21:43;;;;;;;1.15;0.90;;;;;;;21.33;41.63;101346.19;4965997;28;20341;-80
2022/05/30 06:24:10;;;;;;;1.33;1.08;;;;;;;21.36;41.53;101343.16;4947673;28;20771;-80
2022/05/30 06:26:54;;;;;;;0.90;0.90;;;;;;;21.38;41.49;101343.84;4959448;28;20155;-80
2022/05/30 06:29:30;;;;;;;1.02;1.00;;;;;;;21.23;41.68;101322.56;4949556;28;20322;-80
2022/05/30 06:31:57;;;;;;;1.08;0.70;;;;;;;21.36;41.68;101345.81;4980747;28;20062;-79
2022/05/30 06:34:24;;;;;;;0.82;0.77;;;;;;;21.35;41.33;101347.63;4968794;28;20065;-80
2022/05/30 06:36:50;;;;;;;0.93;0.80;;;;;;;21.37;41.33;101350.16;4944096;28;20189;-80
2022/05/30 06:39:17;;;;;;;1.67;0.90;;;;;;;21.30;41.42;101330.63;4958438;28;20109;-80
2022/05/30 06:42:09;;;;;;;1.05;0.90;;;;;;;21.39;41.21;101350.78;4942093;28;20030;-80
2022/05/30 06:44:55;;;;;;;1.17;1.08;;;;;;;21.41;41.25;101354.91;4961345;28;20054;-80
2022/05/30 06:47:39;;;;;;;0.73;0.68;;;;;;;21.24;41.31;101323.38;4958592;28;20065;-81
2022/05/30 06:50:23;;;;;;;1.30;0.93;;;;;;;21.33;41.22;101332.94;4970227;28;20050;-81
2022/05/30 06:52:49;;;;;;;2.03;0.80;;;;;;;21.45;41.34;101358.00;4929690;28;20051;-82
2022/05/30 06:55:14;;;;;;;1.05;0.73;;;;;;;21.27;41.11;101315.09;4951732;28;20034;-81
2022/05/30 07:00:24;;;;;;;1.10;0.90;;;;;;;21.54;41.02;101359.59;4946114;28;20037;-82
2022/05/30 07:03:11;;;;;;;1.60;0.93;;;;;;;21.56;40.90;101354.97;4961939;28;20056;-82
2022/05/30 07:05:56;;;;;;;0.70;0.70;;;;;;;21.40;41.31;101326.75;4970344;28;20153;-82
2022/05/30 07:08:43;;;;;;;2.17;0.82;;;;;;;21.55;41.23;101361.25;4950088;28;20062;-82
2022/05/30 07:11:25;;;;;;;1.08;0.98;;;;;;;21.61;41.18;101351.75;4960770;28;20109;-84
2022/05/30 07:13:51;;;;;;;1.60;1.02;;;;;;;21.61;41.18;101354.41;4952770;28;20051;-84
2022/05/30 07:16:18;;;;;;;1.70;1.20;;;;;;;21.61;41.46;101355.22;4977252;28;20045;-84
2022/05/30 07:18:44;;;;;;;1.00;0.88;;;;;;;21.59;41.08;101354.59;4969405;28;20126;-82
2022/05/30 07:21:13;;;;;;;1.25;1.02;;;;;;;21.60;41.41;101363.38;4936393;28;20116;-84
2022/05/30 07:23:57;;;;;;;2.75;1.13;;;;;;;21.56;41.46;101362.09;4967797;28;20072;-84
2022/05/30 07:26:41;;;;;;;1.83;1.33;;;;;;;21.54;41.16;101350.81;4961898;28;20153;-84
2022/05/30 07:29:42;;;;;;;0.90;0.77;;;;;;;21.58;41.03;101355.59;4908162;29;20044;-83
2022/05/30 07:32:34;;;;;;;1.27;0.90;;;;;;;21.53;41.15;101360.59;4920083;28;20054;-83
2022/05/30 07:35:19;;;;;;;1.95;1.02;;;;;;;21.58;41.46;101368.03;4961716;28;20065;-83
2022/05/30 07:38:14;;;;;;;0.75;0.75;;;;;;;21.47;41.62;101347.25;4944302;28;20038;-83
2022/05/30 07:41:00;;;;;;;2.03;0.82;;;;;;;21.53;41.34;101357.13;4922159;28;20054;-83
2022/05/30 07:43:51;;;;;;;1.40;1.00;;;;;;;21.54;41.46;101356.09;4973775;28;20121;-83
2022/05/30 07:46:31;;;;;;;1.73;1.00;;;;;;;21.60;41.17;101358.88;4962684;28;20042;-83
2022/05/30 07:49:11;;;;;;;1.05;0.85;;;;;;;21.62;41.45;101374.59;4954635;28;20217;-83
2022/05/30 07:51:59;;;;;;;1.17;0.80;;;;;;;21.50;41.24;101345.03;4928607;28;20075;-81
2022/05/30 07:54:34;;;;;;;0.98;0.80;;;;;;;21.58;41.25;101368.84;4948422;28;20432;-82
2022/05/30 07:57:06;;;;;;;1.58;0.85;;;;;;;21.62;41.32;101375.44;4942248;28;20070;-82
2022/05/30 07:59:32;;;;;;;1.58;0.80;;;;;;;21.52;41.17;101348.34;4955202;28;20656;-82
2022/05/30 08:01:58;;;;;;;2.10;1.02;;;;;;;21.63;41.26;101374.44;4955710;28;20061;-82
2022/05/30 08:04:25;;;;;;;1.05;0.80;;;;;;;21.52;41.25;101361.59;4959659;28;20066;-81
2022/05/30 08:06:51;;;;;;;0.95;0.88;;;;;;;21.61;41.23;101375.63;4966107;28;20930;-82
2022/05/30 08:09:35;;;;;;;1.52;1.00;;;;;;;21.56;41.21;101370.84;4974549;28;20093;-82
2022/05/30 08:12:08;;;;;;;1.00;0.77;;;;;;;21.63;41.23;101377.09;4955708;28;20039;-82
2022/05/30 08:14:53;;;;;;;1.42;0.80;;;;;;;21.63;41.19;101373.59;4969774;28;20684;-83
2022/05/30 08:17:20;;;;;;;1.20;0.98;;;;;;;21.65;40.99;101366.28;4949857;28;20038;-83
2022/05/30 08:19:46;;;;;;;1.80;0.93;;;;;;;21.66;40.95;101367.94;4962077;28;20058;-83
2022/05/30 08:22:12;;;;;;;0.88;0.77;;;;;;;21.57;41.50;101356.59;4957080;28;20038;-81
2022/05/30 08:24:40;;;;;;;1.48;1.13;;;;;;;21.21;40.77;101311.31;4959595;28;20062;-82
2022/05/30 08:27:11;;;;;;;1.48;1.02;;;;;;;21.68;41.29;101371.22;4961023;28;20032;-82
2022/05/30 08:29:45;;;;;;;1.40;0.93;;;;;;;21.41;41.23;101343.47;4961291;28;20608;-81
2022/05/30 08:32:12;;;;;;;0.85;0.70;;;;;;;21.60;41.27;101377.44;4964682;28;20051;-81
2022/05/30 08:34:58;;;;;;;2.15;0.60;;;;;;;21.58;41.37;101374.16;4952233;28;20113;-81
2022/05/30 08:37:30;;;;;;;1.80;0.80;;;;;;;21.60;41.55;101373.97;4939253;28;20049;-82
2022/05/30 08:42:48;;;;;;;1.17;0.85;;;;;;;21.69;41.66;101378.19;4983476;28;20121;-83
2022/05/30 08:45:19;;;;;;;2.00;0.60;;;;;;;21.75;41.53;101382.78;4950586;28;20098;-83
2022/05/30 08:47:59;;;;;;;4.00;1.00;;;;;;;21.74;42.06;101380.31;4947868;28;20034;-83
2022/05/30 08:51:01;;;;;;;0.85;0.75;;;;;;;21.76;42.39;101395.03;4947313;28;20547;-83
2022/05/30 08:54:15;;;;;;;2.15;0.75;;;;;;;21.78;42.28;101389.56;4932432;28;21255;-83
2022/05/30 08:56:56;;;;;;;2.10;0.75;;;;;;;21.88;41.97;101385.63;4900721;28;20489;-85
2022/05/30 08:59:54;;;;;;;1.05;0.95;;;;;;;22.03;42.26;101390.97;4959813;28;20042;-83
2022/05/30 09:02:31;;;;;;;1.95;0.82;;;;;;;22.15;42.26;101397.53;4918201;28;20561;-84
2022/05/30 09:05:27;;;;;;;1.10;0.90;;;;;;;22.23;42.08;101394.78;4980707;28;20449;-83
2022/05/30 09:07:59;;;;;;;1.38;1.00;;;;;;;22.22;42.18;101389.66;4921591;28;20081;-83
2022/05/30 09:10:35;;;;;;;0.90;0.80;;;;;;;22.27;42.22;101405.88;4952034;28;20603;-84
2022/05/30 09:13:46;;;;;;;2.72;0.90;;;;;;;22.30;42.29;101405.50;4898114;28;20517;-83
2022/05/30 09:16:30;;;;;;;2.05;1.17;;;;;;;22.34;42.26;101401.47;4907442;29;20048;-82
2022/05/30 09:19:03;;;;;;;0.80;0.80;;;;;;;22.42;41.82;101398.72;4925432;28;20986;-79
2022/05/30 09:21:30;;;;;;;;;;;;;;;22.49;42.01;101398.81;4956495;28;20041;-79
2022/05/30 09:23:56;;;;;;;0.85;0.60;;;;;;;22.29;41.82;101354.25;4950762;28;19918;-79
2022/05/30 09:26:28;;;;;;;1.65;0.80;;;;;;;22.59;41.84;101408.13;4953316;28;20042;-80
2022/05/30 09:29:18;;;;;;;1.63;0.88;;;;;;;22.64;42.15;101407.59;4933469;28;20046;-81
2022/05/30 09:32:41;;;;;;;1.33;0.60;;;;;;;22.60;42.13;101404.47;4941908;28;20145;-78
2022/05/30 09:35:32;;;;;;;0.90;0.80;;;;;;;22.64;42.15;101409.44;4944195;28;20457;-79
2022/05/30 09:38:19;;;;;;;3.20;1.02;;;;;;;22.67;42.10;101401.09;4934151;28;20045;-79
2022/05/30 09:41:10;;;;;;;0.93;0.82;;;;;;;22.73;41.88;101411.78;4956201;28;20641;-81
2022/05/30 09:43:50;;;;;;;0.87;0.70;;;;;;;22.74;42.21;101402.81;4918133;28;22410;-80
2022/05/30 09:46:34;;;;;;;2.67;0.93;;;;;;;;;;4951074;28;20485;-83
2022/05/30 09:49:24;;;;;;;2.65;0.77;;;;;;;22.84;41.78;101399.94;4948618;28;20054;-81
2022/05/30 09:52:04;;;;;;;0.90;0.80;;;;;;;22.84;41.53;101398.09;4966504;28;20062;-83
2022/05/30 09:54:39;;;;;;;0.77;0.60;;;;;;;22.71;41.92;101376.66;4923615;28;20038;-82
2022/05/30 09:57:13;;;;;;;0.80;0.77;;;;;;;22.89;41.69;101403.66;4962417;28;20027;-84
2022/05/30 10:00:17;;;;;;;1.02;1.02;;;;;;;22.48;41.39;101315.72;4957352;28;20043;-86
2022/05/30 10:03:03;;;;;;;1.23;1.00;;;;;;;22.87;41.52;101387.09;4918024;28;20093;-85
2022/05/30 10:05:32;;;;;;;1.98;0.80;;;;;;;22.75;42.13;101393.84;4967137;28;20122;-85
2022/05/30 10:08:04;;;;;;;2.13;1.10;;;;;;;22.77;41.75;101401.63;4917526;28;20049;-83
2022/05/30 10:10:56;;;;;;;1.50;0.73;;;;;;;22.87;41.99;101399.53;4980877;28;20045;-85
2022/05/30 10:13:40;;;;;;;2.15;0.60;;;;;;;22.79;41.91;101376.53;4919562;28;20094;-81
2022/05/30 10:16:33;;;;;;;0.70;0.70;;;;;;;23.11;41.32;101411.66;4971278;28;20085;-82
2022/05/30 10:19:03;;;;;;;1.52;0.88;;;;;;;23.16;41.38;101415.44;4919403;28;20023;-85
2022/05/30 10:28:54;;;;;;;2.15;1.00;;;;;;;23.25;41.45;101418.78;4941829;28;20060;-82
2022/05/30 10:31:57;;;;;;;1.40;0.88;;;;;;;23.26;41.31;101411.63;4974592;28;20988;-83
2022/05/30 10:34:59;;;;;;;1.70;1.10;;;;;;;23.33;41.51;101413.31;4930285;28;20035;-83
2022/05/30 10:38:03;;;;;;;1.85;0.90;;;;;;;23.24;41.36;101403.03;4957643;28;20389;-83
2022/05/30 10:41:11;;;;;;;1.92;0.80;;;;;;;23.14;41.25;101388.19;4910427;28;20043;-84
2022/05/30 10:43:54;;;;;;;2.35;0.70;;;;;;;23.39;41.38;101420.56;4947104;28;20686;-83
2022/05/30 10:46:24;;;;;;;0.80;0.80;;;;;;;23.40;40.97;101419.56;4952891;28;20045;-80
2022/05/30 10:49:01;;;;;;;1.13;1.10;;;;;;;23.32;41.05;101419.66;4932822;28;20030;-86
2022/05/30 10:51:42;;;;;;;2.05;1.00;;;;;;;23.18;41.25;101408.09;4945578;28;20050;-85
2022/05/30 10:54:21;;;;;;;1.73;1.00;;;;;;;23.25;41.37;101421.44;4935410;28;20077;-85
2022/05/30 10:57:06;;;;;;;2.42;0.80;;;;;;;23.04;41.42;101386.88;4978212;28;20035;-84
2022/05/30 10:59:43;;;;;;;3.85;0.80;;;;;;;23.22;40.92;101416.50;4925009;28;20031;-84
2022/05/30 11:02:22;;;;;;;1.63;1.00;;;;;;;23.21;40.71;101418.34;4949785;28;20315;-84
2022/05/30 11:04:56;;;;;;;1.40;0.93;;;;;;;23.00;40.54;101398.88;4930672;28;20042;-84
2022/05/30 11:07:59;;;;;;;0.82;0.82;;;;;;;23.16;40.60;101420.75;4965969;28;20046;-85
2022/05/30 11:10:33;;;;;;;0.93;0.52;;;;;;;23.12;40.08;101430.06;4912956;28;20034;-83
2022/05/30 11:13:10;;;;;;;2.30;0.82;;;;;;;22.92;40.44;101432.50;4974497;28;20035;-86
2022/05/30 11:15:52;;;;;;;1.30;0.80;;;;;;;22.78;40.42;101425.34;4944570;28;20047;-87
2022/05/30 11:19:13;;;;;;;1.88;1.00;;;;;;;22.58;40.17;101430.38;4974906;28;20103;-87
2022/05/30 11:22:03;;;;;;;4.35;0.98;;;;;;;22.69;40.17;101447.69;4935145;28;20049;-86
2022/05/30 11:24:33;;;;;;;1.95;0.73;;;;;;;22.63;39.93;101453.75;4958435;28;20445;-86
2022/05/30 11:27:39;;;;;;;2.40;0.50;;;;;;;22.61;40.10;101467.19;4929862;28;20780;-86
2022/05/30 11:30:08;;;;;;;1.02;0.90;;;;;;;22.55;40.24;101470.56;4866115;28;20075;-86
2022/05/30 11:33:13;;;;;;;2.97;1.30;;;;;;;22.53;40.14;101469.09;4953016;28;20042;-86
2022/05/30 11:36:03;;;;;;;0.40;0.40;;;;;;;22.47;39.73;101473.31;4934535;28;20066;-85
2022/05/30 11:38:31;;;;;;;1.30;0.55;;;;;;;22.63;39.94;101474.16;4964480;28;20042;-79
2022/05/30 11:40:59;;;;;;;0.52;0.52;;;;;;;22.75;39.82;101473.50;4930561;28;20034;-80
2022/05/30 11:43:43;;;;;;;0.85;0.45;;;;;;;22.86;39.76;101470.41;4950398;28;20400;-87
2022/05/30 11:46:35;;;;;;;0.88;0.70;;;;;;;22.94;39.83;101472.16;4922683;28;20050;-82
2022/05/30 11:49:17;;;;;;;1.27;0.60;;;;;;;22.95;40.23;101465.81;4957368;28;20166;-79
2022/05/30 11:51:58;;;;;;;4.25;0.70;;;;;;;23.01;40.37;101467.75;4931614;28;20457;-80
2022/05/30 11:54:39;;;;;;;0.55;0.55;;;;;;;23.05;40.16;101473.53;4948913;28;20047;-81
2022/05/30 11:57:35;;;;;;;0.57;0.57;;;;;;;23.10;40.04;101465.81;4926349;28;20181;-82
2022/05/30 12:00:07;;;;;;;0.52;0.50;;;;;;;23.12;40.37;101469.91;4921889;28;20054;-79
2022/05/30 12:02:51;;;;;;;0.45;0.45;;;;;;;23.17;40.24;101464.91;4965189;28;20771;-86
2022/05/30 12:05:55;;;;;;;2.13;0.55;;;;;;;23.19;40.16;101464.72;4935477;28;21681;-80
2022/05/30 12:08:23;;;;;;;0.65;0.55;;;;;;;23.18;40.33;101461.22;4968220;28;20041;-85
2022/05/30 12:11:25;;;;;;;1.17;0.50;;;;;;;23.05;40.64;101445.13;4906686;28;20039;-81
2022/05/30 12:13:59;;;;;;;0.75;0.70;;;;;;;23.24;40.57;101467.63;4970042;28;20122;-85
2022/05/30 12:16:56;;;;;;;4.60;0.98;;;;;;;23.28;40.41;101468.06;4926373;28;20038;-83
2022/05/30 12:25:34;;;;;;;0.63;0.60;;;;;;;23.37;40.76;101475.75;4851865;29;20135;-81
2022/05/30 12:28:04;;;;;;;1.88;0.50;;;;;;;23.33;40.56;101457.69;4962819;28;20055;-80
2022/05/30 12:30:35;;;;;;;0.55;0.40;;;;;;;23.42;40.65;101476.00;4924566;28;20047;-81
2022/05/30 12:33:21;;;;;;;0.40;0.40;;;;;;;23.40;40.73;101469.22;4959230;28;20051;-80
2022/05/30 12:35:47;;;;;;;0.98;0.80;;;;;;;23.46;40.63;101469.28;4898022;28;20117;-79